Time;durP1;ratioP1;P1;durP2;ratioP2;P2;SDS_P1;SDS_P2;PMS_P1;PMS_P2;Temp;Humidity;BMP_temperature;BMP_pressure;BME280_temperature;BME280_humidity;BME280_pressure;Samples;Min_cycle;Max_cycle;Signal;HPM_P1;HPM_P2
2023/05/19 10:46:23;;;;;;;1.73;1.00;;;27.30;55.60;;;;;;6303183;22;20164;-88
2023/05/19 10:49:03;;;;;;;1.75;1.20;;;27.40;54.90;;;;;;6241219;23;20489;-83
2023/05/19 10:51:33;;;;;;;3.85;1.75;;;27.40;54.40;;;;;;6244531;23;20170;-85
2023/05/19 10:54:02;;;;;;;1.88;1.00;;;27.50;54.00;;;;;;6242899;23;20194;-83
2023/05/19 10:56:34;;;;;;;1.20;0.63;;;27.50;53.80;;;;;;6242371;23;20197;-84
2023/05/19 10:59:04;;;;;;;5.78;1.13;;;27.70;54.50;;;;;;6240859;23;20162;-82
2023/05/19 11:01:37;;;;;;;2.58;1.35;;;27.80;54.40;;;;;;6241553;23;20548;-83
2023/05/19 11:04:07;;;;;;;2.15;1.25;;;27.90;54.00;;;;;;6240502;23;20463;-83
2023/05/19 11:06:37;;;;;;;1.17;0.93;;;27.90;54.10;;;;;;6241742;23;20220;-86
2023/05/19 11:09:14;;;;;;;1.15;0.95;;;27.90;53.40;;;;;;6241351;23;20174;-84
2023/05/19 11:11:47;;;;;;;5.22;2.03;;;27.90;53.00;;;;;;6241959;23;20163;-84
2023/05/19 11:14:18;;;;;;;2.47;1.73;;;27.90;52.80;;;;;;6242534;23;20182;-84
2023/05/19 11:16:53;;;;;;;0.93;0.90;;;27.90;51.80;;;;;;6241453;23;20200;-86
2023/05/19 11:19:27;;;;;;;3.63;1.17;;;28.00;51.70;;;;;;6240504;23;20158;-84
2023/05/19 11:21:57;;;;;;;2.00;1.17;;;28.00;51.60;;;;;;6240298;23;20157;-82
2023/05/19 11:24:39;;;;;;;2.92;1.25;;;28.00;52.10;;;;;;6244765;23;20162;-85
2023/05/19 11:27:23;;;;;;;3.38;1.27;;;28.20;52.30;;;;;;6243934;23;20163;-86
2023/05/19 11:29:51;;;;;;;1.40;1.30;;;28.20;51.70;;;;;;6244109;23;20250;-84
2023/05/19 11:32:23;;;;;;;2.17;1.33;;;28.30;51.20;;;;;;6242807;23;20170;-83
2023/05/19 11:34:51;;;;;;;3.35;1.98;;;28.20;50.90;;;;;;6242943;23;20190;-84
2023/05/19 11:37:20;;;;;;;2.30;1.67;;;28.30;51.60;;;;;;6242036;23;20205;-86
2023/05/19 11:39:50;;;;;;;2.38;0.85;;;28.30;49.90;;;;;;6243061;23;20173;-86
2023/05/19 11:42:20;;;;;;;2.42;1.70;;;28.20;48.90;;;;;;6242406;23;20499;-87
2023/05/19 11:44:49;;;;;;;1.38;0.82;;;28.20;49.60;;;;;;6243505;23;20679;-83
2023/05/19 11:47:17;;;;;;;2.05;1.25;;;28.20;50.10;;;;;;6240456;23;20229;-85
2023/05/19 11:49:48;;;;;;;3.00;1.27;;;28.30;50.80;;;;;;6243845;23;20551;-86
2023/05/19 11:52:17;;;;;;;1.50;0.95;;;28.30;50.10;;;;;;6244218;23;20170;-87
2023/05/19 11:54:51;;;;;;;0.85;0.60;;;28.30;48.50;;;;;;6244092;23;20194;-88
2023/05/19 11:57:20;;;;;;;2.17;1.15;;;28.30;47.60;;;;;;6243600;23;20170;-86
2023/05/19 11:59:52;;;;;;;3.33;1.52;;;28.40;47.70;;;;;;6245230;23;20161;-87
2023/05/19 12:02:26;;;;;;;1.23;1.13;;;28.40;47.50;;;;;;6240910;23;20155;-85
2023/05/19 12:04:56;;;;;;;2.33;0.82;;;28.40;47.80;;;;;;6242667;23;20604;-87
2023/05/19 12:07:25;;;;;;;3.38;1.15;;;28.50;48.80;;;;;;6235916;23;20277;-86
2023/05/19 12:09:55;;;;;;;1.73;1.10;;;28.60;49.10;;;;;;6242950;23;20173;-87
2023/05/19 12:12:23;;;;;;;1.42;1.00;;;28.60;49.30;;;;;;6242117;23;20162;-88
2023/05/19 12:14:52;;;;;;;1.35;0.80;;;28.70;49.10;;;;;;6243079;23;20278;-87
2023/05/19 12:17:22;;;;;;;1.02;0.93;;;28.60;49.10;;;;;;6242912;23;20162;-85
2023/05/19 12:19:51;;;;;;;2.70;1.95;;;28.70;49.20;;;;;;6243394;23;20190;-86
2023/05/19 12:22:22;;;;;;;2.13;1.65;;;28.70;47.10;;;;;;6243853;23;20193;-87
2023/05/19 12:24:51;;;;;;;3.60;1.30;;;28.70;46.60;;;;;;6242171;23;20166;-86
2023/05/19 12:27:23;;;;;;;0.65;0.65;;;28.80;47.30;;;;;;6242396;23;20162;-84
2023/05/19 12:29:52;;;;;;;3.22;1.15;;;28.90;47.80;;;;;;6245039;23;20165;-85
2023/05/19 12:32:24;;;;;;;0.52;0.52;;;29.00;47.40;;;;;;6251631;23;20201;-87
2023/05/19 12:34:53;;;;;;;1.55;1.00;;;29.00;47.60;;;;;;6247396;23;20194;-88
2023/05/19 12:37:22;;;;;;;0.85;0.82;;;29.00;46.50;;;;;;6243166;23;20163;-89
2023/05/19 12:39:51;;;;;;;2.47;1.27;;;29.00;46.60;;;;;;6244686;23;20245;-87
2023/05/19 12:42:20;;;;;;;1.77;1.13;;;28.90;45.30;;;;;;6244125;23;20170;-87
2023/05/19 12:44:52;;;;;;;0.50;0.50;;;29.00;45.60;;;;;;6244235;23;20166;-86
2023/05/19 12:47:21;;;;;;;1.75;0.95;;;29.00;45.90;;;;;;6242055;23;20269;-88
2023/05/19 12:49:56;;;;;;;1.65;1.27;;;29.10;46.40;;;;;;6242918;23;20615;-86
2023/05/19 12:52:34;;;;;;;1.17;0.68;;;29.20;46.40;;;;;;6243810;23;20162;-87
2023/05/19 12:55:11;;;;;;;2.17;0.80;;;29.20;46.80;;;;;;6244217;23;20194;-87
2023/05/19 12:57:44;;;;;;;0.82;0.77;;;29.20;45.70;;;;;;6241197;23;20200;-89
2023/05/19 13:00:19;;;;;;;2.67;1.38;;;29.20;46.30;;;;;;6241480;23;20163;-86
2023/05/19 13:03:14;;;;;;;1.20;0.93;;;29.30;46.60;;;;;;6239826;23;20178;-87
2023/05/19 13:05:45;;;;;;;1.35;0.90;;;29.20;45.80;;;;;;6236727;23;20628;-87
2023/05/19 13:08:16;;;;;;;1.25;1.08;;;29.20;45.60;;;;;;6240487;23;20170;-87
2023/05/19 13:10:46;;;;;;;1.10;0.85;;;29.20;45.20;;;;;;6242641;23;20155;-90
2023/05/19 13:13:15;;;;;;;1.75;1.17;;;29.20;44.70;;;;;;6240589;23;20616;-84
2023/05/19 13:15:47;;;;;;;1.75;1.38;;;29.30;45.10;;;;;;6241694;23;20265;-86
2023/05/19 13:18:16;;;;;;;1.23;1.13;;;29.30;45.20;;;;;;6243600;23;20531;-89
2023/05/19 13:20:47;;;;;;;1.65;0.95;;;29.30;44.90;;;;;;6242496;23;20166;-89
2023/05/19 13:23:18;;;;;;;2.65;1.08;;;29.40;45.30;;;;;;6242953;23;20386;-86
2023/05/19 13:25:47;;;;;;;2.45;1.10;;;29.40;44.30;;;;;;6240647;23;20190;-89
2023/05/19 13:28:15;;;;;;;2.50;1.27;;;29.40;43.60;;;;;;6243275;23;20655;-86
2023/05/19 13:30:50;;;;;;;0.77;0.77;;;29.50;44.20;;;;;;6240019;23;20166;-89
2023/05/19 13:33:19;;;;;;;3.42;1.42;;;29.60;44.70;;;;;;6241212;23;20221;-87
2023/05/19 13:35:49;;;;;;;2.72;1.10;;;29.60;44.00;;;;;;6237313;23;20305;-85
2023/05/19 13:38:21;;;;;;;0.57;0.57;;;29.60;43.40;;;;;;6241166;23;20607;-86
2023/05/19 13:40:51;;;;;;;1.15;0.82;;;29.50;43.90;;;;;;6238795;23;20158;-85
2023/05/19 13:43:20;;;;;;;1.40;0.93;;;29.50;44.20;;;;;;6240845;23;20155;-86
2023/05/19 13:45:49;;;;;;;5.18;1.92;;;29.50;44.30;;;;;;6239835;23;20174;-85
2023/05/19 13:48:22;;;;;;;1.00;0.77;;;29.40;43.80;;;;;;6236946;23;20195;-88
2023/05/19 13:50:54;;;;;;;0.98;0.85;;;29.30;43.60;;;;;;6239966;23;20610;-86
2023/05/19 13:53:44;;;;;;;2.03;0.98;;;29.20;42.90;;;;;;6240979;23;20606;-88
2023/05/19 13:56:15;;;;;;;2.42;1.33;;;29.30;43.90;;;;;;6240266;23;20669;-85
2023/05/19 13:58:49;;;;;;;0.50;0.40;;;29.30;43.80;;;;;;6240155;23;20177;-87
2023/05/19 14:01:21;;;;;;;0.95;0.73;;;29.30;44.20;;;;;;6240317;23;20624;-88
2023/05/19 14:06:52;;;;;;;1.50;1.00;;;29.30;43.10;;;;;;6235472;23;20220;-87
2023/05/19 14:09:28;;;;;;;1.67;0.80;;;29.30;41.90;;;;;;6241436;23;20159;-87
2023/05/19 14:11:59;;;;;;;0.63;0.63;;;29.40;42.90;;;;;;6239785;23;20248;-84
2023/05/19 14:14:28;;;;;;;3.45;1.70;;;29.50;44.80;;;;;;6239239;23;20166;-83
2023/05/19 14:16:57;;;;;;;2.10;0.93;;;29.40;46.30;;;;;;6240003;23;20166;-83
2023/05/19 14:19:28;;;;;;;2.45;1.48;;;29.20;47.00;;;;;;6240908;23;20193;-85
2023/05/19 14:21:57;;;;;;;1.65;0.85;;;29.10;47.60;;;;;;6241645;23;20159;-85
2023/05/19 14:24:27;;;;;;;1.90;1.40;;;29.00;47.90;;;;;;6241061;23;20245;-84
2023/05/19 14:26:56;;;;;;;1.02;0.70;;;28.90;48.90;;;;;;6240476;23;20162;-84
2023/05/19 14:29:24;;;;;;;1.13;0.98;;;29.00;48.90;;;;;;6241460;23;20250;-83
2023/05/19 14:31:54;;;;;;;1.52;0.90;;;29.20;49.10;;;;;;6243020;23;20232;-81
2023/05/19 14:34:22;;;;;;;2.22;1.27;;;29.50;49.70;;;;;;6243050;23;20174;-81
2023/05/19 14:36:50;;;;;;;1.92;1.45;;;29.40;49.80;;;;;;6240562;23;20569;-81
2023/05/19 14:39:19;;;;;;;5.70;1.58;;;29.50;50.10;;;;;;6241454;23;20181;-82
2023/05/19 14:41:50;;;;;;;1.42;0.88;;;29.50;50.10;;;;;;6240701;23;20180;-82
2023/05/19 14:44:19;;;;;;;3.65;1.13;;;29.30;50.30;;;;;;6242625;23;20190;-82
2023/05/19 14:46:47;;;;;;;2.03;0.90;;;29.10;50.80;;;;;;6238296;23;20232;-83
2023/05/19 14:49:16;;;;;;;0.65;0.65;;;28.90;51.10;;;;;;6238436;23;20178;-82
2023/05/19 14:51:46;;;;;;;1.10;0.70;;;28.80;51.40;;;;;;6239233;23;20253;-82
2023/05/19 14:54:14;;;;;;;1.08;0.98;;;28.70;52.00;;;;;;6237154;23;20179;-82
2023/05/19 14:56:42;;;;;;;0.73;0.73;;;28.70;51.80;;;;;;6237677;23;20201;-82
2023/05/19 15:28:47;;;;;;;1.23;0.90;;;26.50;52.80;;;;;;6268323;22;20210;-84
2023/05/19 15:31:16;;;;;;;2.67;1.38;;;26.40;52.80;;;;;;6272067;22;20166;-85
2023/05/19 15:33:44;;;;;;;1.33;1.08;;;26.20;52.90;;;;;;6270357;22;20200;-83
2023/05/19 15:36:15;;;;;;;1.67;0.90;;;26.20;52.90;;;;;;6272034;22;20193;-85
2023/05/19 15:38:43;;;;;;;2.95;1.58;;;26.00;53.30;;;;;;6270607;22;20166;-84
2023/05/19 15:41:12;;;;;;;0.73;0.70;;;25.90;53.10;;;;;;6272153;22;20256;-83
2023/05/19 15:43:41;;;;;;;1.00;0.90;;;25.90;53.10;;;;;;6274172;22;20162;-86
2023/05/19 15:46:12;;;;;;;0.50;0.50;;;25.90;53.40;;;;;;6271308;22;20170;-84
2023/05/19 15:48:40;;;;;;;1.02;0.80;;;25.80;53.60;;;;;;6275146;22;20151;-86
2023/05/19 15:51:10;;;;;;;2.85;1.02;;;25.70;53.50;;;;;;6273018;22;20227;-84
2023/05/19 15:53:38;;;;;;;3.42;1.35;;;25.60;53.70;;;;;;6273764;22;20165;-85
2023/05/19 15:56:07;;;;;;;0.50;0.50;;;25.60;53.80;;;;;;6268855;22;20190;-84
2023/05/19 15:58:35;;;;;;;1.48;0.63;;;25.40;53.40;;;;;;6274348;22;20257;-85
2023/05/19 16:01:04;;;;;;;1.20;1.08;;;25.40;53.60;;;;;;6271150;22;20165;-83
2023/05/19 16:03:34;;;;;;;0.65;0.57;;;25.30;53.60;;;;;;6271190;22;20782;-85
2023/05/19 16:25:17;;;;;;;1.70;0.60;;;24.60;56.30;;;;;;6272993;22;20213;-81
2023/05/19 16:27:46;;;;;;;1.25;1.15;;;24.50;56.70;;;;;;6248026;22;20660;-83
2023/05/19 16:30:15;;;;;;;0.50;0.50;;;24.50;57.10;;;;;;6275053;22;20690;-84
2023/05/19 16:32:44;;;;;;;0.60;0.43;;;24.40;57.20;;;;;;6246798;22;20939;-84
2023/05/19 16:35:13;;;;;;;1.27;0.68;;;24.30;57.50;;;;;;6272133;22;20539;-84
2023/05/19 16:37:42;;;;;;;0.50;0.50;;;24.30;57.60;;;;;;6270381;22;20188;-85
2023/05/19 16:40:12;;;;;;;1.10;0.93;;;24.20;57.80;;;;;;6245662;22;20177;-82
2023/05/19 16:42:42;;;;;;;0.68;0.60;;;24.20;57.60;;;;;;6269522;22;20170;-84
2023/05/19 16:45:11;;;;;;;0.50;0.50;;;24.10;58.20;;;;;;6269789;22;20556;-83
2023/05/19 16:47:40;;;;;;;2.08;1.58;;;24.10;58.20;;;;;;6244071;22;20169;-83
2023/05/19 16:50:09;;;;;;;0.40;0.40;;;24.00;58.20;;;;;;6269609;22;20602;-84
2023/05/19 16:52:38;;;;;;;2.13;1.17;;;23.90;58.10;;;;;;6269657;22;20165;-83
2023/05/19 16:55:07;;;;;;;0.75;0.68;;;23.80;58.10;;;;;;6272190;22;20543;-83
2023/05/19 16:57:35;;;;;;;1.20;0.65;;;23.80;58.30;;;;;;6270131;22;20270;-85
2023/05/19 17:00:06;;;;;;;2.92;1.52;;;23.80;58.20;;;;;;6273352;22;20166;-84
2023/05/19 17:02:35;;;;;;;1.88;1.15;;;23.80;58.00;;;;;;6273745;22;20158;-86
2023/05/19 17:05:04;;;;;;;0.35;0.35;;;23.70;57.60;;;;;;6273089;22;20173;-84
2023/05/19 17:07:33;;;;;;;1.45;0.73;;;23.70;57.70;;;;;;6273882;22;20253;-84
2023/05/19 17:10:01;;;;;;;1.88;1.17;;;23.60;57.90;;;;;;6271990;22;20249;-83
2023/05/19 17:12:30;;;;;;;1.45;0.60;;;23.60;57.80;;;;;;6274411;22;20174;-84
2023/05/19 17:14:59;;;;;;;1.10;0.75;;;23.60;57.60;;;;;;6273197;22;20189;-83
2023/05/19 17:17:28;;;;;;;0.73;0.63;;;23.60;57.70;;;;;;6273370;22;20196;-85
2023/05/19 17:19:57;;;;;;;1.83;1.30;;;23.60;57.80;;;;;;6273122;22;20623;-83
2023/05/19 17:22:25;;;;;;;4.13;1.42;;;23.50;57.60;;;;;;6272791;22;20189;-82
2023/05/19 17:24:57;;;;;;;4.82;1.52;;;23.50;56.90;;;;;;6272355;22;20204;-84
2023/05/19 17:27:25;;;;;;;2.35;1.48;;;23.50;57.10;;;;;;6273389;22;20196;-84
2023/05/19 17:29:54;;;;;;;7.90;2.03;;;23.50;56.80;;;;;;6269883;22;20181;-83
2023/05/19 17:32:26;;;;;;;1.77;0.90;;;23.40;56.50;;;;;;6271814;22;20176;-84
2023/05/19 17:34:58;;;;;;;1.08;0.98;;;23.50;56.60;;;;;;6273174;22;20531;-85
2023/05/19 17:37:26;;;;;;;0.50;0.50;;;23.40;56.30;;;;;;6272536;22;20193;-84
2023/05/19 17:39:55;;;;;;;0.60;0.60;;;23.40;56.00;;;;;;6271006;22;20173;-84
2023/05/19 17:42:23;;;;;;;2.85;1.27;;;23.40;56.30;;;;;;6269506;22;20178;-85
2023/05/19 17:44:52;;;;;;;1.45;1.10;;;23.40;56.20;;;;;;6273765;22;20173;-83
2023/05/19 17:47:20;;;;;;;2.33;1.23;;;23.40;55.80;;;;;;6271657;22;20174;-87
2023/05/19 17:49:51;;;;;;;2.17;1.80;;;23.40;56.00;;;;;;6273693;22;20166;-85
2023/05/19 17:52:25;;;;;;;1.10;0.57;;;23.40;55.70;;;;;;6271438;22;20162;-88
2023/05/19 17:54:54;;;;;;;0.75;0.70;;;23.40;55.50;;;;;;6271485;22;20175;-85
2023/05/19 17:57:25;;;;;;;1.05;0.93;;;23.40;55.20;;;;;;6272691;22;20220;-86
2023/05/19 17:59:54;;;;;;;2.85;1.05;;;23.40;54.50;;;;;;6271669;22;20162;-86
2023/05/19 18:02:23;;;;;;;1.92;0.60;;;23.40;54.20;;;;;;6271233;22;20527;-84
2023/05/19 18:04:52;;;;;;;3.05;1.00;;;23.30;53.80;;;;;;6271286;22;20172;-87
2023/05/19 18:07:24;;;;;;;1.27;1.17;;;23.40;53.20;;;;;;6270430;22;20599;-84
2023/05/19 18:09:55;;;;;;;0.88;0.77;;;23.30;53.10;;;;;;6270887;22;20158;-85
2023/05/19 18:12:23;;;;;;;1.80;1.40;;;23.30;52.90;;;;;;6269752;22;20188;-86
2023/05/19 18:14:51;;;;;;;1.17;0.73;;;23.40;53.10;;;;;;6272024;22;20168;-84
2023/05/19 18:17:20;;;;;;;0.43;0.43;;;23.40;53.10;;;;;;6271293;22;20232;-86
2023/05/19 18:19:49;;;;;;;2.03;1.40;;;23.40;52.90;;;;;;6270439;22;20177;-85
2023/05/19 18:22:17;;;;;;;1.08;0.68;;;23.40;52.90;;;;;;6272548;22;20162;-86
2023/05/19 18:24:50;;;;;;;0.85;0.60;;;23.40;53.10;;;;;;6272435;22;20255;-85
2023/05/19 18:27:19;;;;;;;1.48;1.10;;;23.40;53.10;;;;;;6272208;22;20182;-86
2023/05/19 18:29:47;;;;;;;1.30;1.20;;;23.50;53.00;;;;;;6271619;22;20225;-85
2023/05/19 18:32:16;;;;;;;1.27;0.73;;;23.50;53.00;;;;;;6270773;22;20170;-87
2023/05/19 18:34:45;;;;;;;1.27;1.02;;;23.40;52.80;;;;;;6270803;22;20170;-86
2023/05/19 18:37:13;;;;;;;2.67;1.48;;;23.40;52.70;;;;;;6270718;22;20529;-86
2023/05/19 18:39:41;;;;;;;0.82;0.82;;;23.40;53.30;;;;;;6272102;22;20176;-86
2023/05/19 18:42:11;;;;;;;0.65;0.65;;;23.40;53.30;;;;;;6271883;22;20173;-86
2023/05/19 18:44:41;;;;;;;3.90;1.40;;;23.50;53.80;;;;;;6272909;22;20176;-86
2023/05/19 18:47:09;;;;;;;1.48;1.00;;;23.40;54.40;;;;;;6272635;22;20165;-86
2023/05/19 18:49:39;;;;;;;0.80;0.80;;;23.40;54.90;;;;;;6271342;22;20169;-85
2023/05/19 18:52:08;;;;;;;1.45;0.60;;;23.40;55.30;;;;;;6269585;22;20173;-85
2023/05/19 18:54:36;;;;;;;0.73;0.73;;;23.30;55.90;;;;;;6271539;22;20165;-85
2023/05/19 18:57:05;;;;;;;0.57;0.57;;;23.30;56.20;;;;;;6271017;22;20271;-84
2023/05/19 18:59:35;;;;;;;5.45;1.10;;;23.30;56.70;;;;;;6271987;22;20545;-85
2023/05/19 19:02:04;;;;;;;5.45;2.58;;;23.30;57.40;;;;;;6272670;22;20184;-86
2023/05/19 19:04:32;;;;;;;0.80;0.80;;;23.20;57.70;;;;;;6272903;22;20172;-84
2023/05/19 19:07:01;;;;;;;0.50;0.50;;;23.20;57.40;;;;;;6272263;22;20170;-85
2023/05/19 19:09:29;;;;;;;1.83;1.00;;;23.20;57.60;;;;;;6268489;22;20174;-85
2023/05/19 19:11:58;;;;;;;1.38;1.02;;;23.10;57.80;;;;;;6272061;22;20638;-85
2023/05/19 19:14:27;;;;;;;0.93;0.93;;;23.00;58.40;;;;;;6273404;22;20697;-86
2023/05/19 19:58:01;;;;;;;4.88;1.42;;;22.50;62.20;;;;;;6303754;22;20254;-83
2023/05/19 20:00:29;;;;;;;2.80;1.00;;;22.50;62.10;;;;;;6302795;22;20630;-84
2023/05/19 20:02:58;;;;;;;1.05;1.05;;;22.50;62.50;;;;;;6304794;22;20199;-85
2023/05/19 20:05:30;;;;;;;1.70;1.60;;;22.50;63.50;;;;;;6278199;22;20153;-85
2023/05/19 20:07:59;;;;;;;1.02;0.90;;;22.40;64.30;;;;;;6303848;22;20179;-84
2023/05/19 20:10:27;;;;;;;0.82;0.82;;;22.40;64.10;;;;;;6276917;22;20172;-84
2023/05/19 20:12:57;;;;;;;2.47;1.00;;;22.40;64.20;;;;;;6301293;22;20176;-83
2023/05/19 20:15:27;;;;;;;0.93;0.73;;;22.30;64.00;;;;;;6276896;22;20169;-84
2023/05/19 20:17:56;;;;;;;1.17;0.75;;;22.30;64.10;;;;;;6278482;22;20197;-83
2023/05/19 20:20:24;;;;;;;1.95;1.52;;;22.30;63.80;;;;;;6303361;22;20177;-85
2023/05/19 20:22:53;;;;;;;1.02;0.75;;;22.30;63.70;;;;;;6300787;22;20499;-84
2023/05/19 20:25:22;;;;;;;3.42;2.10;;;22.30;63.90;;;;;;6302309;22;20165;-84
2023/05/19 20:27:51;;;;;;;2.50;0.50;;;22.30;63.70;;;;;;6303170;22;20268;-83
2023/05/19 20:30:20;;;;;;;0.75;0.70;;;22.30;63.70;;;;;;6275902;22;20176;-82
2023/05/19 20:32:50;;;;;;;3.35;1.17;;;22.30;63.70;;;;;;6277650;22;20172;-84
2023/05/19 20:35:18;;;;;;;1.40;0.80;;;22.30;63.70;;;;;;6303466;22;20543;-82
2023/05/19 20:37:48;;;;;;;1.88;1.38;;;22.30;64.10;;;;;;6302828;22;20189;-84
2023/05/19 20:40:16;;;;;;;0.88;0.73;;;22.30;64.10;;;;;;6303963;22;20196;-84
2023/05/19 20:42:44;;;;;;;0.73;0.70;;;22.30;63.80;;;;;;6303515;22;20607;-84
2023/05/19 20:45:13;;;;;;;0.60;0.60;;;22.20;63.70;;;;;;6304283;22;20161;-83
2023/05/19 20:47:41;;;;;;;1.08;0.68;;;22.20;63.50;;;;;;6303932;22;20907;-84
2023/05/19 20:50:11;;;;;;;1.20;0.82;;;22.20;63.40;;;;;;6304039;22;20302;-84
2023/05/19 20:52:40;;;;;;;0.98;0.85;;;22.20;63.40;;;;;;6304386;22;20176;-84
2023/05/19 20:55:08;;;;;;;0.52;0.47;;;22.20;63.40;;;;;;6302704;22;20172;-83
2023/05/19 20:57:37;;;;;;;0.82;0.80;;;22.20;63.40;;;;;;6303397;22;20207;-82
2023/05/19 21:00:06;;;;;;;2.20;0.90;;;22.20;63.40;;;;;;6304124;22;20184;-85
2023/05/19 21:02:35;;;;;;;1.98;1.02;;;22.20;63.40;;;;;;6302012;22;20171;-83
2023/05/19 21:05:03;;;;;;;5.63;1.00;;;22.20;63.30;;;;;;6302544;22;20169;-84
2023/05/19 21:07:33;;;;;;;2.80;0.68;;;22.20;63.40;;;;;;6303728;22;20176;-83
2023/05/19 21:10:02;;;;;;;2.10;0.68;;;22.10;63.40;;;;;;6303797;22;20708;-83
2023/05/19 21:12:32;;;;;;;0.30;0.30;;;22.10;63.40;;;;;;6303442;22;20248;-82
2023/05/19 21:15:02;;;;;;;0.80;0.75;;;22.10;63.40;;;;;;6303402;22;20162;-82
2023/05/19 21:17:30;;;;;;;1.65;0.68;;;22.10;63.40;;;;;;6303644;22;20509;-83
2023/05/19 21:19:59;;;;;;;3.05;1.08;;;22.00;63.40;;;;;;6304259;22;20495;-83
2023/05/19 21:22:28;;;;;;;1.77;0.90;;;22.00;63.40;;;;;;6302189;22;20630;-83
2023/05/19 21:24:58;;;;;;;1.10;0.70;;;22.00;63.30;;;;;;6303127;22;20172;-82
2023/05/19 21:27:26;;;;;;;0.60;0.55;;;22.00;63.40;;;;;;6302531;22;20641;-82
2023/05/19 21:29:56;;;;;;;3.40;0.47;;;22.00;64.30;;;;;;6303358;22;20177;-82
2023/05/19 21:32:24;;;;;;;0.20;0.20;;;21.90;63.40;;;;;;6302877;22;20165;-82
2023/05/19 21:34:53;;;;;;;0.88;0.88;;;22.00;63.50;;;;;;6301722;22;20193;-83
2023/05/19 21:37:21;;;;;;;2.53;0.80;;;21.90;63.50;;;;;;6304284;22;20388;-83
2023/05/19 21:39:50;;;;;;;0.75;0.75;;;21.90;63.60;;;;;;6302590;22;20207;-83
2023/05/19 21:42:20;;;;;;;1.00;0.70;;;21.90;63.70;;;;;;6302535;22;20503;-83
2023/05/19 21:44:48;;;;;;;0.63;0.63;;;21.90;63.80;;;;;;6303123;22;20175;-82
2023/05/19 21:47:17;;;;;;;2.22;0.60;;;21.90;63.90;;;;;;6302077;22;20176;-84
2023/05/19 21:49:45;;;;;;;5.60;0.93;;;21.80;63.90;;;;;;6302598;22;20162;-84
2023/05/19 21:52:14;;;;;;;0.40;0.40;;;21.80;64.00;;;;;;6304534;22;20165;-83
2023/05/19 21:54:42;;;;;;;0.52;0.30;;;21.80;64.10;;;;;;6303512;22;20524;-83
2023/05/19 21:57:11;;;;;;;0.40;0.40;;;21.80;64.10;;;;;;6303311;22;20276;-83
2023/05/19 21:59:41;;;;;;;0.80;0.63;;;21.80;64.10;;;;;;6302741;22;20208;-82
2023/05/19 22:02:09;;;;;;;1.65;1.40;;;21.70;64.10;;;;;;6301492;22;20276;-82
2023/05/19 22:04:38;;;;;;;1.38;0.77;;;21.70;64.20;;;;;;6301905;22;20175;-81
2023/05/19 22:07:06;;;;;;;0.93;0.75;;;21.70;64.20;;;;;;6304789;22;20176;-84
2023/05/19 22:09:36;;;;;;;0.40;0.40;;;21.60;64.20;;;;;;6302814;22;20172;-83
2023/05/19 22:12:06;;;;;;;0.85;0.70;;;21.60;64.30;;;;;;6302258;22;20553;-82
2023/05/19 22:14:34;;;;;;;0.75;0.70;;;21.50;64.30;;;;;;6302945;22;20169;-82
2023/05/19 22:17:04;;;;;;;2.47;1.13;;;21.50;64.50;;;;;;6301081;22;20184;-82
2023/05/19 22:19:32;;;;;;;0.85;0.73;;;21.50;64.60;;;;;;6303720;22;20673;-82
2023/05/19 22:22:01;;;;;;;0.80;0.80;;;21.40;64.50;;;;;;6302901;22;20173;-82
2023/05/19 22:24:41;;;;;;;2.33;0.88;;;21.40;64.70;;;;;;6303718;22;20165;-84
2023/05/19 22:27:09;;;;;;;0.83;0.73;;;21.30;64.80;;;;;;6300999;22;20173;-82
2023/05/19 22:29:38;;;;;;;1.35;1.25;;;21.30;65.10;;;;;;6297533;22;20165;-81
2023/05/19 22:32:10;;;;;;;0.93;0.63;;;21.20;65.20;;;;;;6302732;22;20252;-81
2023/05/19 22:34:39;;;;;;;0.40;0.40;;;21.20;65.30;;;;;;6304542;22;20230;-83
2023/05/19 22:37:08;;;;;;;0.60;0.60;;;21.10;65.50;;;;;;6302933;22;20169;-84
2023/05/19 22:39:39;;;;;;;0.70;0.67;;;21.10;65.70;;;;;;6302862;22;20191;-83
2023/05/19 22:42:08;;;;;;;0.33;0.33;;;21.00;65.90;;;;;;6302583;22;20169;-83
2023/05/19 22:44:36;;;;;;;0.63;0.63;;;21.00;66.00;;;;;;6302253;22;20598;-82
2023/05/19 22:47:05;;;;;;;0.70;0.50;;;20.90;66.40;;;;;;6302722;22;20179;-82
2023/05/19 22:49:35;;;;;;;1.43;0.73;;;20.90;66.10;;;;;;6304844;22;20175;-82
2023/05/19 22:52:03;;;;;;;1.33;0.83;;;20.80;66.30;;;;;;6309406;22;20173;-83
2023/05/19 22:54:32;;;;;;;0.40;0.40;;;20.80;66.50;;;;;;6309173;22;20176;-82
2023/05/19 22:57:00;;;;;;;1.00;0.90;;;20.70;67.20;;;;;;6301447;22;20275;-83
2023/05/19 22:59:28;;;;;;;2.73;0.80;;;20.70;67.50;;;;;;6304408;22;20576;-83
2023/05/19 23:01:57;;;;;;;1.07;1.07;;;20.60;67.60;;;;;;6303012;22;20180;-83
2023/05/19 23:04:25;;;;;;;2.43;0.83;;;20.60;68.00;;;;;;6302893;22;20211;-82
2023/05/19 23:06:55;;;;;;;1.63;0.97;;;20.50;69.10;;;;;;6302144;22;20184;-82
2023/05/19 23:09:23;;;;;;;1.10;0.90;;;20.40;69.00;;;;;;6304227;22;20184;-83
2023/05/19 23:11:52;;;;;;;0.80;0.67;;;20.40;69.10;;;;;;6303647;22;20165;-82
2023/05/19 23:14:20;;;;;;;1.70;0.97;;;20.30;69.10;;;;;;6303946;22;20165;-82
2023/05/19 23:16:49;;;;;;;0.97;0.73;;;20.30;69.70;;;;;;6303552;22;20165;-82
2023/05/19 23:19:19;;;;;;;0.93;0.90;;;20.20;70.00;;;;;;6304319;22;20185;-83
2023/05/19 23:21:48;;;;;;;0.77;0.70;;;20.10;70.00;;;;;;6302839;22;20251;-81
2023/05/19 23:24:17;;;;;;;1.90;1.00;;;20.10;70.80;;;;;;6301331;22;20168;-83
2023/05/19 23:26:46;;;;;;;1.03;0.93;;;20.10;70.50;;;;;;6301927;22;20178;-83
2023/05/19 23:29:14;;;;;;;1.70;1.00;;;20.00;71.80;;;;;;6303044;22;20186;-82
2023/05/19 23:31:44;;;;;;;1.53;1.03;;;20.00;71.80;;;;;;6301560;22;20169;-82
2023/05/19 23:34:13;;;;;;;1.03;0.90;;;19.90;72.20;;;;;;6302683;22;20187;-83
2023/05/19 23:36:41;;;;;;;0.80;0.63;;;19.90;71.80;;;;;;6302393;22;20625;-83
2023/05/19 23:39:10;;;;;;;1.57;1.13;;;19.90;72.30;;;;;;6301393;22;20189;-83
2023/05/19 23:41:39;;;;;;;1.70;1.33;;;19.80;72.00;;;;;;6301608;22;20480;-82
2023/05/19 23:44:08;;;;;;;2.27;1.83;;;19.80;72.20;;;;;;6301554;22;20213;-84
2023/05/19 23:46:37;;;;;;;1.77;0.90;;;19.70;72.50;;;;;;6301351;22;20172;-82
2023/05/19 23:49:05;;;;;;;1.03;0.93;;;19.70;73.70;;;;;;6301956;22;20203;-83
2023/05/19 23:51:34;;;;;;;1.60;0.87;;;19.60;73.20;;;;;;6303305;22;20254;-84
2023/05/19 23:54:02;;;;;;;1.03;0.93;;;19.60;73.00;;;;;;6302829;22;20556;-84
2023/05/19 23:56:30;;;;;;;1.07;0.90;;;19.60;73.20;;;;;;6302496;22;20175;-84
2023/05/19 23:59:00;;;;;;;0.87;0.87;;;19.60;73.00;;;;;;6302653;22;20197;-82
